Batchtown, IL (62006)

4:27 AM CDT on September 02, 2015 (GMT -0500)
APRSWXNET | | Change Station
CLOSE
Current Station
Personal Weather Station
Location: Batchtown, IL
Elevation: 589 ft
Nearby Weather Stations

Elev 589 ft 39.04 °N, 90.67 °W | Updated 20 minutes ago

Clear
Clear
70 °F
Feels Like 70 °F
N
0
Wind Variable Wind from East
Gusts 1.0 mph

Today
High -- | Low -- °F
--% Chance of Precip.
Yesterday
High -- | Low -- °F
Precip. -- in
6:32 AM 7:32 PM
Waning Gibbous, 82% visible
Pressure 30.04 in
Visibility 7.0 miles
Clouds Clear
Dew Point 69 °F
Humidity 98%
Rainfall in
Snow Depth Not available.
UV 0 out of 12
Pollen 11.00 out of 12
Air Quality Not available.
Flu Activity Not available.
METAR KSET 020854Z AUTO 08004KT 7SM CLR 21/21 A3005 RMK AO2 SLP170 T02110206 55003
Pressure 30.04 in
Visibility 7.0 miles
Clouds Clear
Dew Point 69 °F
Humidity 98%
Rainfall in
Snow Depth Not available.
UV 0 out of 12
Pollen 11.00 out of 12
Air Quality Not available.
Flu Activity Not available.
METAR KSET 020854Z AUTO 08004KT 7SM CLR 21/21 A3005 RMK AO2 SLP170 T02110206 55003

10-Day Weather Forecast

×

Almanac

Astronomy

Sep. 02, 2015 Rise Set
Actual Time
Civil Twilight
Nautical Twilight
Astronomical Twilight
Moon
Length of Visible Light
Length of Day
Tomorrow will be .
, % of the Moon is Illuminated

Today's Extremes

State Highs State Lows

Community

WunderPhotos

Upload Photos

1,851,730 photos uploaded!

WunderBlogs® & News

Nearby

Air Quality

  Air Quality AQ Index Pollutant
Not available.

Snow Depth

Station Depth Elevation

Earthquake Activity

City Distance Mag. Time & Date
Minimum magnitude displayed is 2.5.

Coastal Water Temperatures

Place Temperature

Stations

Nearby Weather Stations

Station Location Temp. Windchill Dew Point Humidity Wind Precip. Elev Updated Type